Time;durP1;ratioP1;P1;durP2;ratioP2;P2;SDS_P1;SDS_P2;PMS_P1;PMS_P2;Temp;Humidity;BMP_temperature;BMP_pressure;BME280_temperature;BME280_humidity;BME280_pressure;Samples;Min_cycle;Max_cycle;Signal;HPM_P1;HPM_P2
2024/01/16 00:03:18;;;;;;;18.15;7.30;;;;;;;2.70;100.00;99926.91;8377138;28;20508;-55
2024/01/16 00:07:18;;;;;;;20.30;8.15;;;;;;;2.64;100.00;99926.47;8374570;28;20447;-54
2024/01/16 00:11:18;;;;;;;17.48;8.00;;;;;;;2.57;100.00;99928.72;8377432;28;20123;-54
2024/01/16 00:15:19;;;;;;;19.20;7.82;;;;;;;2.48;100.00;99926.69;8380692;28;20033;-53
2024/01/16 00:19:19;;;;;;;18.75;7.80;;;;;;;2.49;100.00;99925.72;8376586;28;20119;-54
2024/01/16 00:23:19;;;;;;;25.00;7.97;;;;;;;2.55;100.00;99922.63;8375844;28;20526;-54
2024/01/16 00:27:20;;;;;;;21.50;8.02;;;;;;;2.52;100.00;99933.50;8373348;28;20037;-54
2024/01/16 00:31:20;;;;;;;28.75;9.90;;;;;;;2.44;100.00;99941.16;8376882;28;20041;-56
2024/01/16 00:35:21;;;;;;;14.15;7.50;;;;;;;2.47;100.00;99935.63;8374975;28;20086;-58
2024/01/16 00:39:21;;;;;;;18.85;8.18;;;;;;;2.44;100.00;99930.50;8406507;28;20098;-59
2024/01/16 00:43:21;;;;;;;23.70;7.68;;;;;;;2.42;100.00;99948.44;8373349;28;20242;-64
2024/01/16 00:47:22;;;;;;;20.33;8.07;;;;;;;2.40;100.00;99954.81;8375970;28;20463;-57
2024/01/16 00:51:22;;;;;;;16.83;8.35;;;;;;;2.41;100.00;99962.72;8372446;28;20044;-58
2024/01/16 00:55:23;;;;;;;17.52;7.13;;;;;;;2.44;100.00;99959.84;8373996;28;20048;-57
2024/01/16 00:59:23;;;;;;;16.52;7.07;;;;;;;2.49;99.72;99955.06;8376278;28;20111;-58
2024/01/16 01:03:24;;;;;;;14.25;6.13;;;;;;;2.54;99.23;99968.94;8373561;28;20139;-58
2024/01/16 01:07:25;;;;;;;15.52;7.22;;;;;;;2.58;98.55;99964.25;8373720;28;20040;-58
2024/01/16 01:11:26;;;;;;;17.67;6.85;;;;;;;2.67;98.45;99975.16;8375661;28;20036;-56
2024/01/16 01:15:26;;;;;;;13.65;5.80;;;;;;;2.74;98.01;99971.09;8373093;28;20040;-58
2024/01/16 01:19:28;;;;;;;21.00;6.68;;;;;;;2.75;98.00;99983.50;8371877;28;20207;-57
2024/01/16 01:23:28;;;;;;;13.60;6.13;;;;;;;2.75;99.33;99987.97;8376603;28;20041;-56
2024/01/16 01:27:29;;;;;;;20.55;6.50;;;;;;;2.70;100.00;99993.63;8372040;28;20037;-56
2024/01/16 01:31:29;;;;;;;18.85;6.65;;;;;;;2.61;100.00;99996.91;8408229;28;20044;-56
2024/01/16 01:35:30;;;;;;;22.45;7.45;;;;;;;2.55;100.00;99994.66;8373703;28;20060;-57
2024/01/16 01:39:30;;;;;;;23.35;7.13;;;;;;;2.53;100.00;100001.06;8373778;28;20040;-56
2024/01/16 01:43:31;;;;;;;22.95;7.10;;;;;;;2.50;100.00;99996.75;8372180;28;20422;-56
2024/01/16 01:47:32;;;;;;;19.80;7.68;;;;;;;2.57;100.00;100008.75;8373085;28;20041;-56
2024/01/16 01:51:33;;;;;;;25.00;8.68;;;;;;;2.54;100.00;100000.97;8370706;28;20036;-57
2024/01/16 01:55:34;;;;;;;20.17;7.63;;;;;;;2.58;100.00;100009.59;8374261;28;20035;-56
2024/01/16 01:59:35;;;;;;;15.63;7.60;;;;;;;2.57;100.00;100006.09;8370857;28;20036;-56
2024/01/16 02:03:42;;;;;;;15.27;7.13;;;;;;;2.61;100.00;100002.25;8373142;28;20052;-58
2024/01/16 02:07:42;;;;;;;18.58;6.45;;;;;;;2.66;99.26;100001.94;8360530;28;20040;-56
2024/01/16 02:11:43;;;;;;;15.70;7.10;;;;;;;2.71;98.02;100003.31;8372153;28;20041;-57
2024/01/16 02:15:44;;;;;;;17.33;6.25;;;;;;;2.74;97.47;100011.13;8373847;28;20067;-58
2024/01/16 02:19:44;;;;;;;15.48;6.50;;;;;;;2.76;96.96;100006.53;8402256;28;20044;-56
2024/01/16 02:23:45;;;;;;;17.38;6.40;;;;;;;2.81;95.87;100009.75;8372013;28;20048;-56
2024/01/16 02:27:47;;;;;;;14.45;6.80;;;;;;;2.82;96.04;100014.13;8372407;28;20072;-58
2024/01/16 02:31:47;;;;;;;21.13;7.25;;;;;;;2.80;96.60;100015.22;8370738;28;20120;-56
2024/01/16 02:35:48;;;;;;;18.25;6.70;;;;;;;2.76;97.29;100011.88;8372576;28;20041;-60
2024/01/16 02:39:48;;;;;;;14.20;6.65;;;;;;;2.76;97.37;100013.69;8372082;28;20044;-57
2024/01/16 02:43:49;;;;;;;18.75;7.35;;;;;;;2.80;97.10;100013.38;8371078;28;20052;-58
2024/01/16 02:47:49;;;;;;;17.92;7.20;;;;;;;2.81;97.13;100016.91;8368756;28;20067;-56
2024/01/16 02:51:50;;;;;;;13.27;6.28;;;;;;;2.82;97.48;100011.47;8370149;28;20047;-55
2024/01/16 02:55:51;;;;;;;22.95;7.05;;;;;;;2.81;97.08;100015.06;8370692;28;20045;-56
2024/01/16 02:59:52;;;;;;;24.63;7.00;;;;;;;2.77;97.10;100008.25;8371062;28;20041;-56
2024/01/16 03:03:52;;;;;;;18.92;6.70;;;;;;;2.78;97.40;100006.44;8368382;28;20047;-57
2024/01/16 03:07:52;;;;;;;22.17;7.63;;;;;;;2.74;98.65;100013.78;8368543;28;20056;-56
2024/01/16 03:11:53;;;;;;;19.70;7.32;;;;;;;2.69;100.00;100007.94;8361200;28;20052;-56
2024/01/16 03:15:53;;;;;;;18.55;7.43;;;;;;;2.59;100.00;100003.31;8370945;28;20105;-54
2024/01/16 03:19:54;;;;;;;26.92;8.15;;;;;;;2.53;100.00;100020.56;8368579;28;20182;-54
2024/01/16 03:23:54;;;;;;;20.35;9.15;;;;;;;2.52;100.00;100021.53;8375268;28;20052;-55
2024/01/16 03:27:55;;;;;;;22.70;9.57;;;;;;;2.48;100.00;100022.72;8369440;28;20036;-56
2024/01/16 03:31:55;;;;;;;25.02;9.93;;;;;;;2.50;100.00;100018.09;8370592;28;20105;-56
2024/01/16 03:35:56;;;;;;;19.85;9.70;;;;;;;2.46;100.00;100005.94;8371527;28;20321;-54
2024/01/16 03:39:56;;;;;;;26.65;10.35;;;;;;;2.47;100.00;100010.31;8373504;28;20047;-55
2024/01/16 03:43:57;;;;;;;24.02;9.38;;;;;;;2.39;100.00;100001.97;8377109;28;20078;-55
2024/01/16 03:47:58;;;;;;;25.90;9.57;;;;;;;2.41;100.00;100009.88;8373855;28;20098;-54
2024/01/16 03:51:58;;;;;;;26.83;8.68;;;;;;;2.38;100.00;100010.09;8375530;28;20037;-55
2024/01/16 03:55:59;;;;;;;23.95;8.10;;;;;;;2.36;100.00;100002.19;8376110;28;20866;-56
2024/01/16 03:59:59;;;;;;;22.85;9.27;;;;;;;2.36;100.00;100004.84;8378512;28;20037;-55
2024/01/16 04:04:00;;;;;;;21.35;9.15;;;;;;;2.37;100.00;100003.88;8376129;28;20052;-56
2024/01/16 04:08:00;;;;;;;23.20;8.23;;;;;;;2.32;100.00;100005.16;8375461;28;20041;-57
2024/01/16 04:12:01;;;;;;;20.20;8.00;;;;;;;2.36;100.00;100002.19;8377720;28;20036;-58
2024/01/16 04:16:01;;;;;;;24.83;10.25;;;;;;;2.38;100.00;100010.91;8376231;28;20420;-57
2024/01/16 04:20:02;;;;;;;24.52;7.90;;;;;;;2.35;100.00;100011.13;8376125;28;20040;-57
2024/01/16 04:24:02;;;;;;;20.65;7.05;;;;;;;2.34;100.00;100009.41;8377327;28;20050;-57
2024/01/16 04:28:03;;;;;;;14.85;7.28;;;;;;;2.33;100.00;99993.53;8375706;28;20040;-57
2024/01/16 04:32:04;;;;;;;22.40;8.30;;;;;;;2.36;100.00;99996.84;8377499;28;20037;-57
2024/01/16 04:36:05;;;;;;;25.45;7.38;;;;;;;2.34;100.00;100004.09;8376188;28;20041;-57
2024/01/16 04:40:06;;;;;;;20.13;8.68;;;;;;;2.33;100.00;100005.06;8374916;28;20067;-57
2024/01/16 04:44:06;;;;;;;18.05;8.40;;;;;;;2.27;100.00;99996.59;8375178;28;20036;-61
2024/01/16 04:48:08;;;;;;;19.30;8.93;;;;;;;2.27;100.00;99988.59;8376134;28;20029;-55
2024/01/16 04:52:08;;;;;;;29.40;8.85;;;;;;;2.31;100.00;99998.97;8375129;28;20055;-56
2024/01/16 04:56:09;;;;;;;26.23;10.20;;;;;;;2.33;100.00;99997.06;8373360;28;20037;-56
2024/01/16 05:00:10;;;;;;;18.13;8.43;;;;;;;2.39;100.00;99991.31;8374745;28;20037;-56
2024/01/16 05:04:11;;;;;;;23.65;8.23;;;;;;;2.40;100.00;99992.16;8374892;28;20063;-56
2024/01/16 05:08:11;;;;;;;17.88;7.63;;;;;;;2.39;100.00;99993.97;8377400;28;20036;-56
2024/01/16 05:12:13;;;;;;;25.73;8.75;;;;;;;2.35;98.90;99995.13;8378458;28;20091;-57
2024/01/16 05:16:13;;;;;;;15.90;6.75;;;;;;;2.38;98.79;99994.91;8371121;28;20036;-57
2024/01/16 05:20:14;;;;;;;19.75;7.47;;;;;;;2.36;98.09;99979.97;8375467;28;20087;-57
2024/01/16 05:24:14;;;;;;;25.83;8.05;;;;;;;2.31;97.77;99982.97;8375650;28;20040;-58
2024/01/16 05:28:15;;;;;;;25.95;8.65;;;;;;;2.27;98.10;99981.47;8364902;28;20409;-57
2024/01/16 05:32:15;;;;;;;25.05;8.20;;;;;;;2.29;97.54;99968.88;8370587;28;20124;-57
2024/01/16 05:36:16;;;;;;;13.15;6.78;;;;;;;2.33;97.20;99969.53;8375322;28;20029;-58
2024/01/16 05:40:16;;;;;;;19.52;6.72;;;;;;;2.31;96.83;99969.63;8371825;28;20436;-59
2024/01/16 05:44:17;;;;;;;18.75;6.20;;;;;;;2.30;96.26;99967.91;8378805;28;20064;-59
2024/01/16 05:48:17;;;;;;;16.42;6.88;;;;;;;2.28;95.45;99969.81;8402388;28;20105;-63
2024/01/16 05:52:17;;;;;;;14.60;6.10;;;;;;;2.27;96.84;99965.47;8384356;28;20029;-56
2024/01/16 05:56:18;;;;;;;11.52;5.97;;;;;;;2.26;96.12;99957.56;8391127;28;20041;-59
2024/01/16 06:00:18;;;;;;;19.00;6.93;;;;;;;2.23;95.13;99953.31;8390042;28;20037;-59
2024/01/16 06:04:19;;;;;;;15.50;5.13;;;;;;;2.25;95.35;99950.53;8399725;28;20049;-65
2024/01/16 06:08:20;;;;;;;16.55;5.85;;;;;;;2.23;94.36;99947.97;8429641;27;20041;-59
2024/01/16 06:12:20;;;;;;;17.00;6.35;;;;;;;2.23;94.35;99950.63;8387643;28;20047;-57
2024/01/16 06:16:20;;;;;;;18.55;4.80;;;;;;;2.21;93.56;99947.22;8376395;28;20094;-58
2024/01/16 06:20:23;;;;;;;13.80;5.18;;;;;;;2.24;92.93;99955.00;8397152;28;20058;-58
2024/01/16 06:24:24;;;;;;;12.57;4.57;;;;;;;2.20;93.23;99953.50;8394818;28;20135;-56
2024/01/16 06:28:25;;;;;;;14.15;5.55;;;;;;;2.22;92.74;99956.91;8389481;28;20082;-56
2024/01/16 06:32:26;;;;;;;20.27;4.57;;;;;;;2.28;92.31;99963.66;8374560;28;20043;-55
2024/01/16 06:36:26;;;;;;;12.00;3.92;;;;;;;2.32;92.31;99963.34;8399336;28;20061;-57
2024/01/16 06:40:27;;;;;;;17.77;4.90;;;;;;;2.31;92.06;99961.63;8402856;28;20055;-56
2024/01/16 06:44:27;;;;;;;15.00;4.55;;;;;;;2.31;91.69;99961.63;8402503;28;20048;-56
2024/01/16 06:48:28;;;;;;;14.27;4.15;;;;;;;2.34;91.68;99965.88;8400129;28;20044;-55
2024/01/16 06:52:28;;;;;;;15.35;4.40;;;;;;;2.32;91.02;99966.03;8397602;28;20039;-57
2024/01/16 06:56:29;;;;;;;11.82;3.70;;;;;;;2.31;90.40;99966.97;8397293;28;20036;-56
2024/01/16 07:00:29;;;;;;;17.70;3.70;;;;;;;2.37;89.01;99971.88;8373832;28;20457;-56
2024/01/16 07:04:32;;;;;;;24.02;4.18;;;;;;;2.38;89.37;99973.56;8370938;28;20488;-55
2024/01/16 07:08:33;;;;;;;14.52;3.88;;;;;;;2.32;89.12;99976.69;8369622;28;20064;-56
2024/01/16 07:12:34;;;;;;;15.82;3.33;;;;;;;2.33;89.33;99978.38;8371668;28;20044;-55
2024/01/16 07:16:35;;;;;;;15.50;2.97;;;;;;;2.28;90.47;99987.66;8373616;28;20500;-56
2024/01/16 07:20:36;;;;;;;9.18;3.28;;;;;;;2.23;90.23;99984.44;8372948;28;20405;-55
2024/01/16 07:24:37;;;;;;;14.43;3.50;;;;;;;2.16;90.15;99989.28;8375271;28;20052;-56
2024/01/16 07:28:37;;;;;;;13.70;3.40;;;;;;;2.08;90.04;99996.97;8375798;28;20028;-56
2024/01/16 07:32:38;;;;;;;7.30;2.85;;;;;;;2.02;89.71;100008.03;8375593;28;20071;-55
2024/01/16 07:36:38;;;;;;;11.60;3.42;;;;;;;1.95;89.54;100014.69;8373865;28;20067;-56
2024/01/16 07:40:39;;;;;;;16.10;3.88;;;;;;;1.90;89.90;100008.81;8376012;28;20489;-56
2024/01/16 07:44:39;;;;;;;10.45;3.10;;;;;;;1.84;89.65;100014.53;8374708;28;20535;-57
2024/01/16 07:48:40;;;;;;;15.60;3.53;;;;;;;1.77;89.92;100018.56;8373548;28;20509;-57
2024/01/16 07:52:40;;;;;;;14.70;4.10;;;;;;;1.71;90.12;100025.09;8379383;28;20420;-55
2024/01/16 07:56:41;;;;;;;14.60;3.25;;;;;;;1.73;90.13;100031.22;8377935;28;20060;-59
2024/01/16 08:00:41;;;;;;;5.72;2.75;;;;;;;1.73;89.23;100033.00;8377017;28;20468;-57
2024/01/16 08:04:42;;;;;;;11.95;3.10;;;;;;;1.69;89.01;100031.50;8379747;28;20552;-57
2024/01/16 08:08:42;;;;;;;5.75;3.15;;;;;;;1.66;88.87;100031.69;8378349;28;20051;-58
2024/01/16 08:12:43;;;;;;;10.73;3.75;;;;;;;1.65;88.39;100024.66;8378257;28;20063;-57
2024/01/16 08:16:43;;;;;;;13.48;3.95;;;;;;;1.62;87.92;100033.69;8376147;28;20056;-57
2024/01/16 08:20:45;;;;;;;13.45;3.60;;;;;;;1.65;88.18;100040.66;8375747;28;20071;-57
2024/01/16 08:24:45;;;;;;;15.95;3.47;;;;;;;1.67;88.28;100034.25;8376101;28;20110;-57
2024/01/16 08:28:46;;;;;;;9.27;3.13;;;;;;;1.69;88.02;100039.50;8377558;28;20368;-58
2024/01/16 08:32:47;;;;;;;11.55;3.25;;;;;;;1.76;87.08;100043.47;8375898;28;20045;-57
2024/01/16 08:36:48;;;;;;;12.70;4.10;;;;;;;1.85;86.55;100049.09;8377560;28;20163;-58
2024/01/16 08:40:48;;;;;;;11.88;4.53;;;;;;;1.81;84.83;100052.03;8376885;28;20058;-58
2024/01/16 08:44:49;;;;;;;17.85;6.00;;;;;;;1.82;84.61;100059.94;8375613;28;20047;-57
2024/01/16 08:48:49;;;;;;;13.50;3.47;;;;;;;1.92;85.63;100052.19;8373648;28;20124;-57
2024/01/16 08:52:50;;;;;;;15.40;3.33;;;;;;;2.04;84.53;100051.41;8377045;28;20493;-58
2024/01/16 08:56:50;;;;;;;13.98;3.08;;;;;;;1.98;83.88;100034.00;8376610;28;20567;-58
2024/01/16 09:00:51;;;;;;;8.00;3.10;;;;;;;2.56;81.80;100030.19;8375010;28;20045;-58
2024/01/16 09:04:51;;;;;;;8.80;2.70;;;;;;;3.79;78.13;100035.69;8376869;28;20049;-65
2024/01/16 09:08:51;;;;;;;8.27;2.70;;;;;;;3.61;76.66;100037.03;8376765;28;20049;-58
2024/01/16 09:12:52;;;;;;;9.55;3.10;;;;;;;3.54;76.36;100041.06;8376658;28;20500;-57
2024/01/16 09:16:53;;;;;;;11.98;3.28;;;;;;;3.48;76.27;100038.81;8372171;28;20518;-56
2024/01/16 09:20:55;;;;;;;13.45;3.05;;;;;;;3.00;78.24;100044.91;8374384;28;20045;-58
2024/01/16 09:24:56;;;;;;;16.38;3.28;;;;;;;2.82;79.67;100048.84;8375162;28;20044;-57
2024/01/16 09:28:56;;;;;;;10.27;3.33;;;;;;;2.87;79.76;100056.53;8373813;28;20511;-56
2024/01/16 09:32:58;;;;;;;17.02;3.47;;;;;;;2.93;79.84;100056.13;8376654;28;20086;-57
2024/01/16 09:37:00;;;;;;;10.32;3.05;;;;;;;3.19;79.74;100045.34;8373900;28;20045;-57
2024/01/16 09:41:02;;;;;;;11.93;3.58;;;;;;;3.39;78.62;100047.47;8374031;28;20060;-57
2024/01/16 09:45:04;;;;;;;13.48;3.20;;;;;;;3.94;77.31;100053.28;8375388;28;20533;-55
2024/01/16 09:49:04;;;;;;;14.55;3.85;;;;;;;4.19;74.22;100056.88;8372661;28;20044;-57
2024/01/16 09:53:05;;;;;;;9.85;2.90;;;;;;;4.09;74.68;100048.69;8373836;28;20044;-57
2024/01/16 09:57:12;;;;;;;13.23;3.08;;;;;;;3.74;76.13;100034.31;8374101;28;20060;-55
2024/01/16 10:01:13;;;;;;;20.00;3.55;;;;;;;3.52;77.26;100024.31;8374732;28;20036;-55
2024/01/16 10:05:14;;;;;;;18.17;5.15;;;;;;;3.34;78.35;100022.94;8372397;28;20528;-55
2024/01/16 10:09:15;;;;;;;17.77;6.25;;;;;;;3.17;77.68;100028.56;8375322;28;20423;-55
2024/01/16 10:13:17;;;;;;;16.52;4.28;;;;;;;3.01;79.19;100021.72;8373854;28;20039;-55
2024/01/16 10:17:18;;;;;;;10.32;3.40;;;;;;;3.04;78.62;100021.50;8373226;28;20033;-55
2024/01/16 10:21:22;;;;;;;15.38;3.58;;;;;;;3.09;78.16;100009.59;8375271;28;20070;-55
2024/01/16 10:25:22;;;;;;;9.43;3.22;;;;;;;3.40;77.98;99997.59;8371851;28;20037;-55
2024/01/16 10:29:22;;;;;;;7.45;2.97;;;;;;;3.63;76.60;100000.31;8374225;28;20092;-56
2024/01/16 10:33:27;;;;;;;13.30;3.22;;;;;;;3.83;75.47;99996.22;8374602;28;20032;-56
2024/01/16 10:37:28;;;;;;;10.88;3.28;;;;;;;3.67;76.16;99995.63;8371964;28;20049;-57
2024/01/16 10:41:28;;;;;;;13.55;3.08;;;;;;;3.70;76.18;99985.59;8373676;28;20094;-57
2024/01/16 10:45:29;;;;;;;12.00;2.83;;;;;;;4.28;74.19;99989.31;8371059;28;20394;-55
2024/01/16 10:49:29;;;;;;;16.15;3.45;;;;;;;4.90;71.85;99980.91;8372956;28;20777;-55
2024/01/16 10:53:33;;;;;;;9.85;3.38;;;;;;;5.07;70.88;99968.91;8377552;28;20443;-55
2024/01/16 10:57:34;;;;;;;17.65;3.05;;;;;;;5.75;68.98;99977.69;8378363;28;20045;-57
2024/01/16 11:01:35;;;;;;;9.88;3.58;;;;;;;6.41;66.24;99972.22;8380416;28;20029;-55
2024/01/16 11:05:37;;;;;;;11.52;3.05;;;;;;;5.62;67.23;99971.63;8379700;28;20059;-57
2024/01/16 11:09:39;;;;;;;11.60;3.80;;;;;;;4.84;69.70;99981.38;8378857;28;20151;-54
2024/01/16 11:13:44;;;;;;;12.23;3.60;;;;;;;4.45;71.78;99978.22;8380687;28;20101;-55
2024/01/16 11:17:45;;;;;;;13.70;3.28;;;;;;;4.93;70.60;99964.63;8378269;28;20044;-55
2024/01/16 11:21:47;;;;;;;15.52;3.35;;;;;;;6.62;68.25;99962.31;8378578;28;20037;-54
2024/01/16 11:25:47;;;;;;;15.73;3.60;;;;;;;6.44;66.01;99969.28;8377913;28;20036;-55
2024/01/16 11:29:51;;;;;;;16.52;3.47;;;;;;;5.71;67.04;99985.13;8380290;28;20044;-55
2024/01/16 11:33:51;;;;;;;10.50;3.45;;;;;;;4.84;68.26;99977.84;8377418;28;20056;-54
2024/01/16 11:37:52;;;;;;;9.52;2.97;;;;;;;5.36;68.66;99964.78;8378348;28;20037;-55
2024/01/16 11:41:55;;;;;;;10.43;3.25;;;;;;;6.79;64.09;99967.13;8379536;28;20036;-57
2024/01/16 11:45:57;;;;;;;9.98;4.00;;;;;;;6.82;63.72;99966.88;8378330;28;20416;-57
2024/01/16 11:50:27;;;;;;;13.75;3.90;;;;;;;7.76;61.18;99967.53;8376059;28;20043;-57
2024/01/16 11:54:28;;;;;;;11.00;3.25;;;;;;;8.07;59.79;99955.72;8378910;28;20044;-57
2024/01/16 11:58:48;;;;;;;9.27;3.47;;;;;;;8.73;58.45;99943.31;8400919;28;20092;-57
2024/01/16 12:02:53;;;;;;;12.90;3.85;;;;;;;6.51;61.55;99938.22;8349831;28;20034;-57
2024/01/16 12:06:57;;;;;;;6.43;3.28;;;;;;;6.53;62.22;99935.41;8343321;28;20047;-58
2024/01/16 12:10:59;;;;;;;9.48;3.20;;;;;;;7.27;61.84;99927.13;8345275;28;20402;-55
2024/01/16 12:15:00;;;;;;;8.23;3.70;;;;;;;7.54;59.93;99925.53;8345169;28;20145;-57
2024/01/16 12:19:05;;;;;;;15.63;3.85;;;;;;;6.54;62.37;99937.97;8342986;28;20045;-55
2024/01/16 12:23:07;;;;;;;13.13;3.90;;;;;;;5.49;64.84;99919.97;8342468;28;20424;-56
2024/01/16 12:27:08;;;;;;;11.52;4.03;;;;;;;4.55;66.59;99915.00;8344003;28;20037;-55
2024/01/16 12:31:08;;;;;;;10.18;4.38;;;;;;;3.74;69.69;99903.34;8344149;28;20040;-56
2024/01/16 12:35:09;;;;;;;16.63;4.97;;;;;;;3.46;72.51;99899.16;8342076;28;20052;-56
2024/01/16 12:39:12;;;;;;;12.75;4.93;;;;;;;3.35;73.35;99901.75;8346960;28;20037;-56
2024/01/16 12:43:12;;;;;;;15.40;4.88;;;;;;;3.29;72.65;99898.66;8379054;28;20033;-55
2024/01/16 12:47:15;;;;;;;14.40;4.88;;;;;;;3.18;73.56;99895.91;8374252;28;20048;-54
2024/01/16 12:51:23;;;;;;;12.45;4.95;;;;;;;3.34;73.56;99892.03;8374038;28;20381;-55
2024/01/16 12:55:23;;;;;;;8.50;4.63;;;;;;;3.64;72.40;99895.16;8373660;28;20238;-55
2024/01/16 12:59:29;;;;;;;15.98;4.93;;;;;;;3.67;71.46;99880.72;8377798;28;20047;-55
2024/01/16 13:03:30;;;;;;;12.02;4.82;;;;;;;3.60;72.70;99887.47;8373279;28;20041;-55
2024/01/16 13:07:31;;;;;;;9.82;5.25;;;;;;;3.43;72.00;99878.03;8375306;28;20036;-55
2024/01/16 13:11:44;;;;;;;14.00;5.07;;;;;;;3.49;72.22;99874.91;8374958;28;20041;-54
2024/01/16 13:15:45;;;;;;;18.08;5.45;;;;;;;3.59;72.19;99872.38;8374635;28;20048;-55
2024/01/16 13:19:45;;;;;;;14.48;4.78;;;;;;;3.80;70.94;99863.66;8372700;28;20131;-55
2024/01/16 13:23:46;;;;;;;245.00;65.15;;;;;;;3.85;70.18;99856.13;8376382;28;20044;-55
2024/01/16 13:27:47;;;;;;;12.95;4.70;;;;;;;3.78;69.34;99854.88;8371725;28;20029;-55
2024/01/16 13:31:48;;;;;;;11.18;4.72;;;;;;;3.60;70.21;99856.25;8371482;28;20048;-57
2024/01/16 13:35:48;;;;;;;19.42;4.90;;;;;;;3.71;70.03;99859.00;8376000;28;20066;-57
2024/01/16 13:39:49;;;;;;;8.07;4.30;;;;;;;3.55;69.71;99858.44;8373690;28;20165;-56
2024/01/16 13:43:49;;;;;;;10.43;5.22;;;;;;;3.53;69.14;99871.03;8374864;28;20091;-56
2024/01/16 13:47:50;;;;;;;14.15;5.60;;;;;;;3.60;68.33;99866.94;8375210;28;20159;-57
2024/01/16 13:51:51;;;;;;;16.02;5.57;;;;;;;3.47;69.48;99850.09;8372450;28;20040;-58
2024/01/16 13:55:51;;;;;;;12.73;5.03;;;;;;;3.54;69.69;99850.53;8373753;28;20032;-58
2024/01/16 13:59:52;;;;;;;15.80;5.20;;;;;;;3.44;70.48;99845.00;8374026;28;20085;-58
2024/01/16 14:03:52;;;;;;;14.00;5.38;;;;;;;3.37;69.62;99845.53;8375661;28;20036;-56
2024/01/16 14:07:54;;;;;;;11.75;4.72;;;;;;;3.30;70.28;99834.44;8373102;28;20062;-61
2024/01/16 14:11:54;;;;;;;16.05;5.43;;;;;;;3.04;71.11;99840.84;8373759;28;20044;-57
2024/01/16 14:15:56;;;;;;;15.77;5.30;;;;;;;3.05;71.22;99841.69;8374512;28;20371;-57
2024/01/16 14:19:57;;;;;;;13.05;5.43;;;;;;;2.94;71.50;99834.44;8372530;28;20063;-56
2024/01/16 14:23:57;;;;;;;14.90;5.43;;;;;;;2.92;71.13;99831.03;8372213;28;20054;-55
2024/01/16 14:28:03;;;;;;;14.10;6.20;;;;;;;2.93;71.81;99824.72;8373429;28;20481;-56
2024/01/16 14:32:03;;;;;;;12.52;5.53;;;;;;;2.90;71.53;99827.59;8374019;28;20478;-55
2024/01/16 14:36:04;;;;;;;14.43;5.38;;;;;;;2.96;72.62;99821.84;8372039;28;20143;-56
2024/01/16 14:40:12;;;;;;;16.33;5.68;;;;;;;3.13;70.65;99824.16;8372551;28;20512;-57
2024/01/16 14:44:12;;;;;;;15.52;5.63;;;;;;;3.21;70.40;99821.78;8370762;28;20044;-58
2024/01/16 14:48:15;;;;;;;15.00;5.60;;;;;;;3.13;69.96;99816.16;8374645;28;20036;-55
2024/01/16 14:52:17;;;;;;;22.38;7.15;;;;;;;2.97;69.94;99802.19;8371966;28;20032;-55
2024/01/16 14:56:19;;;;;;;20.77;7.47;;;;;;;3.02;70.67;99804.53;8371310;28;20033;-57
2024/01/16 15:00:20;;;;;;;16.42;5.45;;;;;;;2.91;70.23;99796.44;8372193;28;20037;-58
2024/01/16 15:04:20;;;;;;;15.00;7.03;;;;;;;2.85;70.39;99803.09;8372998;28;20064;-57
2024/01/16 15:08:21;;;;;;;14.43;4.93;;;;;;;2.81;69.93;99785.56;8367613;28;20041;-57
2024/01/16 15:12:21;;;;;;;17.10;5.25;;;;;;;2.69;70.01;99781.13;8390530;28;20044;-57
2024/01/16 15:16:22;;;;;;;9.32;4.18;;;;;;;2.50;70.20;99770.03;8366286;28;20056;-57
2024/01/16 15:20:23;;;;;;;11.30;5.32;;;;;;;2.44;71.41;99775.81;8370976;28;20044;-57
2024/01/16 15:24:28;;;;;;;12.77;5.55;;;;;;;2.37;71.37;99766.53;8371104;28;20531;-56
2024/01/16 15:28:29;;;;;;;12.93;5.70;;;;;;;2.31;72.45;99774.97;8373873;28;20465;-57
2024/01/16 15:32:31;;;;;;;10.95;5.07;;;;;;;2.27;72.19;99780.63;8384340;28;20500;-57
2024/01/16 15:36:32;;;;;;;17.67;6.38;;;;;;;2.15;72.83;99785.00;8365654;28;20064;-57
2024/01/16 15:40:32;;;;;;;11.93;4.82;;;;;;;2.10;72.67;99792.44;8372205;28;20032;-55
2024/01/16 15:44:33;;;;;;;10.60;4.80;;;;;;;1.98;72.68;99787.94;8369518;28;20067;-54
2024/01/16 15:48:33;;;;;;;11.98;5.18;;;;;;;1.93;74.32;99792.75;8372196;28;20040;-57
2024/01/16 15:52:34;;;;;;;12.90;4.88;;;;;;;1.81;73.96;99791.78;8395214;28;20036;-57
2024/01/16 15:56:34;;;;;;;10.55;4.70;;;;;;;1.79;73.34;99798.16;8393405;28;20336;-56
2024/01/16 16:00:35;;;;;;;11.23;4.32;;;;;;;1.78;73.64;99788.47;8382747;28;20572;-56
2024/01/16 16:04:36;;;;;;;15.00;4.80;;;;;;;1.83;72.86;99789.03;8377790;28;20535;-57
2024/01/16 16:08:37;;;;;;;12.73;5.03;;;;;;;1.83;73.04;99789.03;8380374;28;20059;-56
2024/01/16 16:12:37;;;;;;;12.85;4.68;;;;;;;1.84;73.17;99801.38;8382201;28;20043;-57
2024/01/16 16:16:38;;;;;;;8.93;4.63;;;;;;;1.80;73.75;99810.53;8373903;28;20045;-57
2024/01/16 16:20:38;;;;;;;8.55;4.45;;;;;;;1.74;72.34;99810.94;8375852;28;20095;-55
2024/01/16 16:24:39;;;;;;;8.40;4.03;;;;;;;1.66;71.99;99821.25;8376078;28;20157;-56
2024/01/16 16:28:39;;;;;;;8.50;3.95;;;;;;;1.62;73.26;99833.06;8368477;28;20135;-54
2024/01/16 16:32:40;;;;;;;11.18;5.55;;;;;;;1.56;72.88;99829.00;8371826;28;20051;-57
2024/01/16 16:36:41;;;;;;;11.60;5.35;;;;;;;1.52;72.81;99823.97;8370508;28;20121;-56
2024/01/16 16:40:42;;;;;;;10.85;5.53;;;;;;;1.52;73.24;99821.31;8365817;28;20045;-55
2024/01/16 16:44:42;;;;;;;13.20;4.57;;;;;;;1.52;73.48;99821.31;8378678;28;20049;-56
2024/01/16 16:48:44;;;;;;;11.48;5.07;;;;;;;1.37;72.69;99817.00;8364699;28;20040;-55
2024/01/16 16:52:44;;;;;;;11.45;5.28;;;;;;;1.28;73.18;99812.28;8360519;28;20045;-56
2024/01/16 16:56:45;;;;;;;31.02;11.35;;;;;;;1.09;73.25;99814.41;8373586;28;20075;-55
2024/01/16 17:00:47;;;;;;;21.60;6.55;;;;;;;0.98;74.07;99814.25;8379034;28;20416;-57
2024/01/16 17:04:47;;;;;;;14.63;6.50;;;;;;;0.87;74.87;99811.41;8372316;28;20509;-57
2024/01/16 17:08:48;;;;;;;16.05;5.50;;;;;;;0.80;74.79;99800.31;8372086;28;20523;-56
2024/01/16 17:12:48;;;;;;;9.93;4.82;;;;;;;0.79;75.10;99805.75;8370844;28;20048;-58
2024/01/16 17:16:48;;;;;;;14.48;5.45;;;;;;;0.77;75.30;99799.66;8379878;28;20407;-57
2024/01/16 17:20:51;;;;;;;13.48;6.13;;;;;;;0.67;75.01;99777.25;8368568;28;20110;-56
2024/01/16 17:24:52;;;;;;;14.75;6.78;;;;;;;0.61;75.55;99782.97;8371188;28;20128;-57
2024/01/16 17:28:52;;;;;;;19.77;7.55;;;;;;;0.55;76.06;99778.03;8373229;28;20037;-56
2024/01/16 17:32:52;;;;;;;19.58;10.68;;;;;;;0.25;77.13;99778.13;8357262;28;20041;-57
2024/01/16 17:36:53;;;;;;;19.90;10.18;;;;;;;0.01;78.42;99772.50;8361806;28;20132;-55
2024/01/16 17:40:54;;;;;;;12.05;5.00;;;;;;;-0.08;79.63;99759.81;8362391;28;20264;-55
2024/01/16 17:44:58;;;;;;;12.32;5.10;;;;;;;-0.05;78.79;99756.97;8364865;28;20079;-55
2024/01/16 17:48:58;;;;;;;;;;;;;;;-0.12;78.42;99749.47;8362091;28;20481;-55
2024/01/16 17:53:00;;;;;;;11.52;4.13;;;;;;;-0.14;78.38;99746.03;8367044;28;19966;-56
2024/01/16 17:57:00;;;;;;;11.93;4.97;;;;;;;-0.07;78.24;99748.22;8365344;28;20036;-54
2024/01/16 18:01:01;;;;;;;16.33;6.60;;;;;;;-0.05;78.24;99753.44;8373326;28;20044;-55
2024/01/16 18:05:09;;;;;;;14.63;6.25;;;;;;;-0.03;77.92;99741.75;8378227;28;20032;-55
2024/01/16 18:09:11;;;;;;;17.98;5.50;;;;;;;-0.06;77.77;99739.28;8395142;28;20078;-57
2024/01/16 18:13:11;;;;;;;9.82;4.72;;;;;;;-0.12;78.21;99738.84;8369007;28;20037;-58
2024/01/16 18:17:12;;;;;;;10.63;4.47;;;;;;;-0.29;78.88;99737.19;8399112;28;20041;-57
2024/01/16 18:21:14;;;;;;;10.90;5.50;;;;;;;-0.26;79.17;99731.69;8365974;28;20040;-55
2024/01/16 18:25:14;;;;;;;17.30;5.43;;;;;;;-0.22;78.76;99722.59;8367163;28;20114;-56
2024/01/16 18:29:16;;;;;;;12.73;5.22;;;;;;;-0.26;79.08;99713.09;8367964;28;20032;-57
2024/01/16 18:33:18;;;;;;;11.57;5.75;;;;;;;-0.24;79.69;99713.84;8366756;28;20496;-56
2024/01/16 18:37:19;;;;;;;12.75;5.90;;;;;;;-0.34;79.66;99695.91;8368604;28;20060;-57
2024/01/16 18:41:20;;;;;;;10.27;5.32;;;;;;;-0.50;80.52;99696.00;8368002;28;20040;-55
2024/01/16 18:45:21;;;;;;;18.70;6.75;;;;;;;-0.56;80.86;99696.38;8366068;28;20040;-56
2024/01/16 18:49:21;;;;;;;14.60;5.75;;;;;;;-0.74;81.42;99697.47;8365686;28;20044;-54